createdAt,value
2016-04-13T00:00:42.035Z,0
2016-04-13T00:01:42.038Z,0
2016-04-13T00:02:42.040Z,0
2016-04-13T00:03:42.058Z,0
2016-04-13T00:04:42.061Z,0
2016-04-13T00:05:42.079Z,0
2016-04-13T00:06:42.082Z,0
2016-04-13T00:07:42.084Z,0
2016-04-13T00:08:42.076Z,0
2016-04-13T00:09:42.095Z,0
2016-04-13T00:10:42.112Z,0
2016-04-13T00:11:42.100Z,0
2016-04-13T00:12:42.118Z,0
2016-04-13T00:13:42.152Z,0
2016-04-13T00:14:42.155Z,0
2016-04-13T00:15:42.158Z,0
2016-04-13T00:16:42.128Z,0
2016-04-13T00:17:42.163Z,0
2016-04-13T00:18:42.166Z,0
2016-04-13T00:19:42.152Z,0
2016-04-13T00:20:42.156Z,0
2016-04-13T00:21:42.175Z,0
2016-04-13T00:22:42.176Z,0
2016-04-13T00:23:42.195Z,0
2016-04-13T00:24:42.197Z,0
2016-04-13T00:25:42.200Z,0
2016-04-13T00:26:42.188Z,0
2016-04-13T00:27:42.205Z,0
2016-04-13T00:28:42.208Z,0
2016-04-13T00:29:42.227Z,0
2016-04-13T00:30:42.213Z,0
2016-04-13T00:31:42.248Z,0
2016-04-13T00:32:42.219Z,0
2016-04-13T00:33:42.253Z,0
2016-04-13T00:34:42.256Z,0
2016-04-13T00:35:42.259Z,0
2016-04-13T00:36:42.276Z,0
2016-04-13T00:37:42.310Z,0
2016-04-13T00:38:42.266Z,0
2016-04-13T00:39:42.269Z,0
2016-04-13T00:40:42.273Z,0
2016-04-13T00:41:42.290Z,0
2016-04-13T00:42:42.309Z,0
2016-04-13T00:43:42.311Z,0
2016-04-13T00:44:42.329Z,0
2016-04-13T00:45:42.301Z,0
2016-04-13T00:46:42.320Z,0
2016-04-13T00:47:42.322Z,0
2016-04-13T00:48:42.340Z,0
2016-04-13T00:49:42.343Z,0
2016-04-13T00:50:42.345Z,0
2016-04-13T00:51:42.347Z,0
2016-04-13T00:52:42.350Z,0
2016-04-13T00:53:42.369Z,0
2016-04-13T00:54:42.356Z,0
2016-04-13T00:55:42.374Z,0
2016-04-13T00:56:42.393Z,0
2016-04-13T00:57:42.396Z,0
2016-04-13T00:58:42.413Z,0
2016-04-13T00:59:42.401Z,0
2016-04-13T01:00:42.404Z,0
2016-04-13T01:01:42.406Z,0
2016-04-13T01:02:42.409Z,0
2016-04-13T01:03:42.427Z,0
2016-04-13T01:04:42.414Z,0
2016-04-13T01:05:42.510Z,0
2016-04-13T01:06:42.435Z,0
2016-04-13T01:07:42.438Z,0
2016-04-13T01:08:42.285Z,0
2016-04-13T01:09:42.460Z,0
2016-04-13T01:10:42.462Z,0
2016-04-13T01:11:42.480Z,0
2016-04-13T01:12:42.472Z,0
2016-04-13T01:13:42.474Z,0
2016-04-13T01:14:42.476Z,0
2016-04-13T01:15:42.479Z,0
2016-04-13T01:16:42.497Z,0
2016-04-13T01:17:42.515Z,0
2016-04-13T01:18:42.502Z,0
2016-04-13T01:19:42.505Z,0
2016-04-13T01:20:42.524Z,0
2016-04-13T01:21:42.543Z,0
2016-04-13T01:22:42.549Z,0
2016-04-13T01:23:42.536Z,0
2016-04-13T01:24:42.539Z,0
2016-04-13T01:25:42.557Z,0
2016-04-13T01:26:42.575Z,0
2016-04-13T01:27:42.578Z,0
2016-04-13T01:28:42.580Z,0
2016-04-13T01:29:42.583Z,0
2016-04-13T01:30:42.571Z,0
2016-04-13T01:31:42.588Z,0
2016-04-13T01:32:42.591Z,0
2016-04-13T01:33:42.610Z,0
2016-04-13T01:34:42.596Z,0
2016-04-13T01:35:42.615Z,0
2016-04-13T01:36:42.617Z,0
2016-04-13T01:37:42.620Z,0
2016-04-13T01:38:42.638Z,0
2016-04-13T01:39:42.626Z,0
2016-04-13T01:40:43.238Z,0
2016-04-13T01:41:42.646Z,0
2016-04-13T01:42:42.649Z,0
2016-04-13T01:43:42.512Z,0
2016-04-13T01:44:42.671Z,0
2016-04-13T01:45:42.673Z,0
2016-04-13T01:46:42.676Z,0
2016-04-13T01:47:42.679Z,0
2016-04-13T01:48:42.681Z,0
2016-04-13T01:49:42.684Z,0
2016-04-13T01:50:42.702Z,0
2016-04-13T01:51:42.705Z,0
2016-04-13T01:52:42.723Z,0
2016-04-13T01:53:42.725Z,0
2016-04-13T01:54:42.739Z,0
2016-04-13T01:55:42.784Z,0
2016-04-13T01:56:42.674Z,0
2016-04-13T01:57:42.877Z,0
2016-04-13T01:58:42.937Z,0
2016-04-13T01:59:42.993Z,0
2016-04-13T02:00:42.978Z,0
2016-04-13T02:01:43.013Z,0
2016-04-13T02:02:43.031Z,0
2016-04-13T02:03:43.048Z,0
2016-04-13T02:04:43.080Z,0
2016-04-13T02:05:43.089Z,0
2016-04-13T02:06:43.096Z,0
2016-04-13T02:07:43.105Z,0
2016-04-13T02:08:43.128Z,0
2016-04-13T02:09:43.119Z,0
2016-04-13T02:10:43.155Z,0
2016-04-13T02:11:43.160Z,0
2016-04-13T02:12:43.148Z,0
2016-04-13T02:13:43.154Z,0
2016-04-13T02:14:43.173Z,0
2016-04-13T02:15:43.177Z,0
2016-04-13T02:16:43.181Z,0
2016-04-13T02:17:43.184Z,0
2016-04-13T02:18:43.202Z,0
2016-04-13T02:19:43.190Z,0
2016-04-13T02:20:43.209Z,0
2016-04-13T02:21:43.244Z,0
2016-04-13T02:22:43.215Z,0
2016-04-13T02:23:43.250Z,0
2016-04-13T02:24:43.221Z,0
2016-04-13T02:25:43.240Z,0
2016-04-13T02:26:43.242Z,0
2016-04-13T02:27:43.261Z,0
2016-04-13T02:28:43.264Z,0
2016-04-13T02:29:43.267Z,0
2016-04-13T02:30:43.270Z,0
2016-04-13T02:31:43.287Z,0
2016-04-13T02:32:43.275Z,0
2016-04-13T02:33:43.293Z,0
2016-04-13T02:34:43.295Z,0
2016-04-13T02:35:43.142Z,0
2016-04-13T02:36:43.301Z,0
2016-04-13T02:37:43.319Z,0
2016-04-13T02:38:43.338Z,0
2016-04-13T02:39:43.325Z,0
2016-04-13T02:40:43.327Z,0
2016-04-13T02:41:43.330Z,0
2016-04-13T02:42:43.333Z,0
2016-04-13T02:43:43.351Z,0
2016-04-13T02:44:43.353Z,0
2016-04-13T02:45:43.340Z,0
2016-04-13T02:46:43.360Z,0
2016-04-13T02:47:43.362Z,0
2016-04-13T02:48:43.365Z,0
2016-04-13T02:49:43.382Z,0
2016-04-13T02:50:43.385Z,0
2016-04-13T02:51:43.388Z,0
2016-04-13T02:52:43.390Z,0
2016-04-13T02:53:43.409Z,0
2016-04-13T02:54:43.411Z,0
2016-04-13T02:55:43.414Z,0
2016-04-13T02:56:43.417Z,0
2016-04-13T02:57:43.419Z,0
2016-04-13T02:58:43.437Z,0
2016-04-13T02:59:43.425Z,0
2016-04-13T03:00:43.443Z,0
2016-04-13T03:01:43.446Z,0
2016-04-13T03:02:43.464Z,0
2016-04-13T03:03:43.467Z,0
2016-04-13T03:04:43.470Z,0
2016-04-13T03:05:43.473Z,0
2016-04-13T03:06:43.475Z,0
2016-04-13T03:07:43.478Z,0
2016-04-13T03:08:43.480Z,0
2016-04-13T03:09:43.514Z,0
2016-04-13T03:10:43.517Z,0
2016-04-13T03:11:43.535Z,0
2016-04-13T03:12:43.522Z,0
2016-04-13T03:13:43.524Z,0
2016-04-13T03:14:43.528Z,0
2016-04-13T03:15:43.531Z,0
2016-04-13T03:16:43.533Z,0
2016-04-13T03:17:43.536Z,0
2016-04-13T03:18:43.538Z,0
2016-04-13T03:19:43.541Z,0
2016-04-13T03:20:43.560Z,0
2016-04-13T03:21:43.563Z,0
2016-04-13T03:22:43.581Z,0
2016-04-13T03:23:43.567Z,0
2016-04-13T03:24:43.586Z,0
2016-04-13T03:25:43.604Z,0
2016-04-13T03:26:43.606Z,0
2016-04-13T03:27:43.594Z,0
2016-04-13T03:28:43.612Z,0
2016-04-13T03:29:43.615Z,0
2016-04-13T03:30:43.868Z,0
2016-04-13T03:31:43.636Z,0
2016-04-13T03:32:43.639Z,0
2016-04-13T03:33:43.626Z,0
2016-04-13T03:34:43.644Z,0
2016-04-13T03:35:43.647Z,0
2016-04-13T03:36:43.509Z,0
2016-04-13T03:37:43.667Z,0
2016-04-13T03:38:43.670Z,0
2016-04-13T03:39:43.658Z,0
2016-04-13T03:40:43.665Z,0
2016-04-13T03:41:43.683Z,0
2016-04-13T03:42:43.685Z,0
2016-04-13T03:43:43.689Z,0
2016-04-13T03:44:43.691Z,0
2016-04-13T03:45:43.710Z,0
2016-04-13T03:46:43.696Z,0
2016-04-13T03:47:43.715Z,0
2016-04-13T03:48:43.718Z,0
2016-04-13T03:49:43.720Z,0
2016-04-13T03:50:43.739Z,0
2016-04-13T03:51:43.820Z,0
2016-04-13T03:52:43.744Z,0
2016-04-13T03:53:43.762Z,0
2016-04-13T03:54:43.765Z,0
2016-04-13T03:55:43.768Z,0
2016-04-13T03:56:43.770Z,0
2016-04-13T03:57:43.804Z,0
2016-04-13T03:58:43.792Z,0
2016-04-13T03:59:43.795Z,0
2016-04-13T04:00:43.781Z,0
2016-04-13T04:01:43.831Z,0
2016-04-13T04:02:43.646Z,0
2016-04-13T04:03:43.805Z,0
2016-04-13T04:04:43.839Z,0
2016-04-13T04:05:43.810Z,0
2016-04-13T04:06:43.844Z,0
2016-04-13T04:07:43.831Z,0
2016-04-13T04:08:43.834Z,0
2016-04-13T04:09:43.852Z,0
2016-04-13T04:10:43.839Z,0
2016-04-13T04:11:43.858Z,0
2016-04-13T04:12:43.861Z,0
2016-04-13T04:13:43.895Z,0
2016-04-13T04:14:43.897Z,0
2016-04-13T04:15:43.885Z,0
2016-04-13T04:16:43.715Z,0
2016-04-13T04:17:43.874Z,0
2016-04-13T04:18:43.893Z,0
2016-04-13T04:19:43.910Z,0
2016-04-13T04:20:43.913Z,4
2016-04-13T04:21:44.009Z,4
2016-04-13T04:22:43.918Z,0
2016-04-13T04:23:43.921Z,4
2016-04-13T04:24:43.940Z,4
2016-04-13T04:25:43.942Z,4
2016-04-13T04:26:43.945Z,4
2016-04-13T04:27:43.948Z,8
2016-04-13T04:28:43.951Z,8
2016-04-13T04:29:43.953Z,4
2016-04-13T04:30:43.956Z,4
2016-04-13T04:31:43.959Z,8
2016-04-13T04:32:43.978Z,8
2016-04-13T04:33:43.980Z,8
2016-04-13T04:34:43.983Z,12
2016-04-13T04:35:43.985Z,8
2016-04-13T04:36:44.050Z,8
2016-04-13T04:37:44.006Z,8
2016-04-13T04:38:44.008Z,12
2016-04-13T04:39:44.011Z,12
2016-04-13T04:40:44.014Z,8
2016-04-13T04:41:44.017Z,12
2016-04-13T04:42:44.036Z,12
2016-04-13T04:43:44.038Z,12
2016-04-13T04:44:44.041Z,12
2016-04-13T04:45:44.043Z,16
2016-04-13T04:46:44.061Z,16
2016-04-13T04:47:44.048Z,12
2016-04-13T04:48:44.066Z,12
2016-04-13T04:49:44.069Z,16
2016-04-13T04:50:44.072Z,16
2016-04-13T04:51:44.215Z,16
2016-04-13T04:52:44.077Z,16
2016-04-13T04:53:44.095Z,20
2016-04-13T04:54:44.098Z,16
2016-04-13T04:55:44.148Z,16
2016-04-13T04:56:44.104Z,16
2016-04-13T04:57:44.123Z,20
2016-04-13T04:58:44.126Z,20
2016-04-13T04:59:44.128Z,20
2016-04-13T05:00:44.131Z,20
2016-04-13T05:01:44.148Z,20
2016-04-13T05:02:44.151Z,20
2016-04-13T05:03:44.154Z,20
2016-04-13T05:04:44.156Z,20
2016-04-13T05:05:44.159Z,16
2016-04-13T05:06:44.225Z,16
2016-04-13T05:07:44.164Z,16
2016-04-13T05:08:44.199Z,20
2016-04-13T05:09:44.186Z,20
2016-04-13T05:10:44.189Z,20
2016-04-13T05:11:44.191Z,20
2016-04-13T05:12:44.194Z,20
2016-04-13T05:13:44.212Z,20
2016-04-13T05:14:44.215Z,20
2016-04-13T05:15:44.232Z,24
2016-04-13T05:16:44.235Z,24
2016-04-13T05:17:44.223Z,24
2016-04-13T05:18:44.241Z,24
2016-04-13T05:19:44.244Z,28
2016-04-13T05:20:44.246Z,24
2016-04-13T05:21:44.266Z,24
2016-04-13T05:22:44.251Z,28
2016-04-13T05:23:44.285Z,28
2016-04-13T05:24:44.288Z,28
2016-04-13T05:25:44.338Z,32
2016-04-13T05:26:44.279Z,32
2016-04-13T05:27:44.296Z,36
2016-04-13T05:28:44.315Z,40
2016-04-13T05:29:44.302Z,40
2016-04-13T05:30:44.320Z,44
2016-04-13T05:31:44.339Z,48
2016-04-13T05:32:44.309Z,52
2016-04-13T05:33:44.360Z,56
2016-04-13T05:34:44.331Z,56
2016-04-13T05:35:44.334Z,56
2016-04-13T05:36:44.336Z,60
2016-04-13T05:37:44.355Z,64
2016-04-13T05:38:44.357Z,68
2016-04-13T05:39:44.345Z,72
2016-04-13T05:40:44.363Z,72
2016-04-13T05:41:44.366Z,76
2016-04-13T05:42:44.383Z,76
2016-04-13T05:43:44.386Z,80
2016-04-13T05:44:44.389Z,76
2016-04-13T05:45:44.391Z,80
2016-04-13T05:46:44.394Z,84
2016-04-13T05:47:44.413Z,84
2016-04-13T05:48:44.415Z,88
2016-04-13T05:49:44.418Z,88
2016-04-13T05:50:44.421Z,92
2016-04-13T05:51:44.423Z,92
2016-04-13T05:52:44.410Z,96
2016-04-13T05:53:44.461Z,100
2016-04-13T05:54:44.448Z,96
2016-04-13T05:55:44.434Z,100
2016-04-13T05:56:44.453Z,96
2016-04-13T05:57:44.471Z,100
2016-04-13T05:58:44.459Z,100
2016-04-13T05:59:44.476Z,100
2016-04-13T06:00:44.479Z,104
2016-04-13T06:01:44.482Z,100
2016-04-13T06:02:44.500Z,100
2016-04-13T06:03:44.518Z,104
2016-04-13T06:04:44.489Z,104
2016-04-13T06:05:44.493Z,108
2016-04-13T06:06:44.511Z,108
2016-04-13T06:07:44.514Z,112
2016-04-13T06:08:44.517Z,108
2016-04-13T06:09:44.534Z,112
2016-04-13T06:10:44.537Z,112
2016-04-13T06:11:44.525Z,176
2016-04-13T06:12:44.543Z,200
2016-04-13T06:13:44.561Z,216
2016-04-13T06:14:44.547Z,220
2016-04-13T06:15:44.566Z,224
2016-04-13T06:16:44.569Z,236
2016-04-13T06:17:44.571Z,232
2016-04-13T06:18:44.590Z,240
2016-04-13T06:19:44.593Z,236
2016-04-13T06:20:44.596Z,240
2016-04-13T06:21:44.598Z,236
2016-04-13T06:22:44.602Z,232
2016-04-13T06:23:44.619Z,232
2016-04-13T06:24:44.606Z,232
2016-04-13T06:25:44.624Z,232
2016-04-13T06:26:44.659Z,228
2016-04-13T06:27:44.646Z,128
2016-04-13T06:28:44.648Z,124
2016-04-13T06:29:44.635Z,124
2016-04-13T06:30:44.654Z,120
2016-04-13T06:31:44.656Z,124
2016-04-13T06:32:44.643Z,124
2016-04-13T06:33:44.677Z,120
2016-04-13T06:34:44.664Z,120
2016-04-13T06:35:44.683Z,120
2016-04-13T06:36:44.669Z,124
2016-04-13T06:37:44.689Z,128
2016-04-13T06:38:44.691Z,136
2016-04-13T06:39:44.708Z,140
2016-04-13T06:40:44.697Z,128
2016-04-13T06:41:44.714Z,128
2016-04-13T06:42:44.733Z,124
2016-04-13T06:43:44.719Z,128
2016-04-13T06:44:44.753Z,144
2016-04-13T06:45:44.741Z,144
2016-04-13T06:46:44.744Z,160
2016-04-13T06:47:44.761Z,164
2016-04-13T06:48:44.764Z,136
2016-04-13T06:49:44.751Z,136
2016-04-13T06:50:44.770Z,136
2016-04-13T06:51:44.788Z,160
2016-04-13T06:52:44.775Z,164
2016-04-13T06:53:44.793Z,176
2016-04-13T06:54:44.796Z,176
2016-04-13T06:55:44.799Z,156
2016-04-13T06:56:44.802Z,164
2016-04-13T06:57:44.804Z,184
2016-04-13T06:58:44.807Z,152
2016-04-13T06:59:44.810Z,156
2016-04-13T07:00:44.812Z,184
2016-04-13T07:01:44.831Z,136
2016-04-13T07:02:44.834Z,136
2016-04-13T07:03:44.836Z,168
2016-04-13T07:04:44.839Z,188
2016-04-13T07:05:44.842Z,140
2016-04-13T07:06:44.875Z,140
2016-04-13T07:07:44.878Z,140
2016-04-13T07:08:44.880Z,144
2016-04-13T07:09:44.867Z,144
2016-04-13T07:10:44.870Z,200
2016-04-13T07:11:44.888Z,164
2016-04-13T07:12:44.907Z,208
2016-04-13T07:13:44.910Z,216
2016-04-13T07:14:44.913Z,216
2016-04-13T07:15:44.900Z,216
2016-04-13T07:16:44.918Z,220
2016-04-13T07:17:44.921Z,224
2016-04-13T07:18:44.939Z,228
2016-04-13T07:19:44.941Z,232
2016-04-13T07:20:44.945Z,236
2016-04-13T07:21:44.963Z,240
2016-04-13T07:22:44.950Z,248
2016-04-13T07:23:44.953Z,256
2016-04-13T07:24:44.971Z,260
2016-04-13T07:25:44.974Z,236
2016-04-13T07:26:44.991Z,264
2016-04-13T07:27:44.994Z,272
2016-04-13T07:28:44.982Z,288
2016-04-13T07:29:44.999Z,304
2016-04-13T07:30:45.002Z,320
2016-04-13T07:31:45.004Z,324
2016-04-13T07:32:45.007Z,316
2016-04-13T07:33:44.995Z,316
2016-04-13T07:34:45.028Z,316
2016-04-13T07:35:45.032Z,328
2016-04-13T07:36:45.050Z,340
2016-04-13T07:37:45.053Z,336
2016-04-13T07:38:45.056Z,312
2016-04-13T07:39:45.058Z,300
2016-04-13T07:40:45.061Z,260
2016-04-13T07:41:45.079Z,256
2016-04-13T07:42:45.066Z,252
2016-04-13T07:43:45.069Z,248
2016-04-13T07:44:45.086Z,236
2016-04-13T07:45:45.089Z,236
2016-04-13T07:46:45.092Z,216
2016-04-13T07:47:45.110Z,204
2016-04-13T07:48:45.129Z,192
2016-04-13T07:49:45.116Z,192
2016-04-13T07:50:45.119Z,192
2016-04-13T07:51:45.122Z,192
2016-04-13T07:52:45.140Z,192
2016-04-13T07:53:45.143Z,180
2016-04-13T07:54:45.145Z,176
2016-04-13T07:55:45.148Z,184
2016-04-13T07:56:45.166Z,188
2016-04-13T07:57:45.153Z,184
2016-04-13T07:58:45.172Z,192
2016-04-13T07:59:45.174Z,196
2016-04-13T08:00:45.177Z,192
2016-04-13T08:01:45.196Z,196
2016-04-13T08:02:45.198Z,224
2016-04-13T08:03:45.201Z,324
2016-04-13T08:04:45.203Z,324
2016-04-13T08:05:45.221Z,244
2016-04-13T08:06:45.224Z,324
2016-04-13T08:07:45.226Z,324
2016-04-13T08:08:45.109Z,324
2016-04-13T08:09:45.236Z,324
2016-04-13T08:10:45.239Z,328
2016-04-13T08:11:45.258Z,324
2016-04-13T08:12:45.244Z,328
2016-04-13T08:13:45.264Z,328
2016-04-13T08:14:45.297Z,328
2016-04-13T08:15:45.269Z,328
2016-04-13T08:16:45.288Z,328
2016-04-13T08:17:45.290Z,328
2016-04-13T08:18:45.293Z,328
2016-04-13T08:19:45.311Z,328
2016-04-13T08:20:45.313Z,332
2016-04-13T08:21:45.316Z,332
2016-04-13T08:22:45.335Z,336
2016-04-13T08:23:45.338Z,336
2016-04-13T08:24:45.325Z,340
2016-04-13T08:25:45.343Z,344
2016-04-13T08:26:45.346Z,340
2016-04-13T08:27:45.363Z,344
2016-04-13T08:28:45.366Z,348
2016-04-13T08:29:45.385Z,348
2016-04-13T08:30:45.371Z,348
2016-04-13T08:31:45.374Z,348
2016-04-13T08:32:45.392Z,348
2016-04-13T08:33:45.395Z,352
2016-04-13T08:34:45.429Z,352
2016-04-13T08:35:45.400Z,356
2016-04-13T08:36:45.420Z,356
2016-04-13T08:37:45.422Z,356
2016-04-13T08:38:45.425Z,356
2016-04-13T08:39:45.427Z,360
2016-04-13T08:40:45.430Z,360
2016-04-13T08:41:45.433Z,364
2016-04-13T08:42:45.450Z,364
2016-04-13T08:43:45.453Z,368
2016-04-13T08:44:45.471Z,368
2016-04-13T08:45:45.474Z,372
2016-04-13T08:46:45.477Z,372
2016-04-13T08:47:45.480Z,376
2016-04-13T08:48:45.499Z,376
2016-04-13T08:49:45.486Z,380
2016-04-13T08:50:45.488Z,380
2016-04-13T08:51:45.507Z,388
2016-04-13T08:52:45.509Z,392
2016-04-13T08:53:45.512Z,392
2016-04-13T08:54:45.530Z,396
2016-04-13T08:55:45.533Z,396
2016-04-13T08:56:45.536Z,400
2016-04-13T08:57:45.538Z,404
2016-04-13T08:58:45.557Z,412
2016-04-13T08:59:45.559Z,420
2016-04-13T09:00:45.577Z,436
2016-04-13T09:01:45.580Z,444
2016-04-13T09:02:45.582Z,452
2016-04-13T09:03:45.601Z,448
2016-04-13T09:04:45.587Z,452
2016-04-13T09:05:45.606Z,460
2016-04-13T09:06:45.609Z,472
2016-04-13T09:07:45.612Z,500
2016-04-13T09:08:45.630Z,516
2016-04-13T09:09:45.617Z,532
2016-04-13T09:10:45.636Z,532
2016-04-13T09:11:45.638Z,536
2016-04-13T09:12:45.656Z,548
2016-04-13T09:13:45.644Z,564
2016-04-13T09:14:45.647Z,568
2016-04-13T09:15:45.664Z,572
2016-04-13T09:16:45.667Z,584
2016-04-13T09:17:45.669Z,568
2016-04-13T09:18:45.688Z,576
2016-04-13T09:19:45.691Z,580
2016-04-13T09:20:45.694Z,608
2016-04-13T09:21:45.697Z,608
2016-04-13T09:22:45.715Z,596
2016-04-13T09:23:45.718Z,572
2016-04-13T09:24:45.735Z,576
2016-04-13T09:25:45.738Z,588
2016-04-13T09:26:45.741Z,664
2016-04-13T09:27:45.760Z,628
2016-04-13T09:28:45.763Z,632
2016-04-13T09:29:45.765Z,616
2016-04-13T09:30:46.143Z,604
2016-04-13T09:31:45.770Z,588
2016-04-13T09:32:45.788Z,572
2016-04-13T09:33:45.806Z,556
2016-04-13T09:34:45.793Z,520
2016-04-13T09:35:45.812Z,508
2016-04-13T09:36:45.814Z,508
2016-04-13T09:37:45.818Z,504
2016-04-13T09:38:45.836Z,504
2016-04-13T09:39:45.823Z,500
2016-04-13T09:40:45.841Z,496
2016-04-13T09:41:45.844Z,496
2016-04-13T09:42:45.862Z,496
2016-04-13T09:43:45.864Z,496
2016-04-13T09:44:45.867Z,488
2016-04-13T09:45:45.870Z,492
2016-04-13T09:46:45.872Z,492
2016-04-13T09:47:45.891Z,492
2016-04-13T09:48:45.894Z,492
2016-04-13T09:49:45.913Z,492
2016-04-13T09:50:45.916Z,496
2016-04-13T09:51:45.918Z,496
2016-04-13T09:52:45.952Z,500
2016-04-13T09:53:45.923Z,504
2016-04-13T09:54:46.041Z,508
2016-04-13T09:55:45.829Z,512
2016-04-13T09:56:45.988Z,508
2016-04-13T09:57:45.960Z,508
2016-04-13T09:58:46.900Z,516
2016-04-13T09:59:46.012Z,520
2016-04-13T10:00:45.989Z,524
2016-04-13T10:01:46.008Z,532
2016-04-13T10:02:45.855Z,532
2016-04-13T10:03:46.014Z,536
2016-04-13T10:04:46.023Z,544
2016-04-13T10:05:45.870Z,540
2016-04-13T10:06:46.044Z,360
2016-04-13T10:07:46.109Z,564
2016-04-13T10:08:46.033Z,568
2016-04-13T10:09:46.052Z,568
2016-04-13T10:10:46.070Z,592
2016-04-13T10:11:46.089Z,596
2016-04-13T10:12:54.935Z,600
2016-04-13T10:14:06.953Z,596
2016-04-13T10:15:08.659Z,592
2016-04-13T10:15:59.755Z,592
2016-04-13T10:16:46.118Z,596
2016-04-13T10:17:46.136Z,592
2016-04-13T10:18:46.123Z,604
2016-04-13T10:19:46.142Z,616
2016-04-13T10:20:46.144Z,608
2016-04-13T10:21:46.147Z,616
2016-04-13T10:22:45.900Z,608
2016-04-13T10:23:46.152Z,604
2016-04-13T10:24:46.171Z,596
2016-04-13T10:25:46.189Z,592
2016-04-13T10:26:46.176Z,596
2016-04-13T10:27:46.179Z,604
2016-04-13T10:28:46.182Z,604
2016-04-13T10:29:46.216Z,600
2016-04-13T10:30:46.209Z,660
2016-04-13T10:31:46.243Z,648
2016-04-13T10:32:46.231Z,616
2016-04-13T10:33:46.045Z,644
2016-04-13T10:34:46.267Z,660
2016-04-13T10:35:46.254Z,660
2016-04-13T10:36:46.256Z,676
2016-04-13T10:37:46.478Z,672
2016-04-13T10:38:46.276Z,692
2016-04-13T10:39:46.279Z,684
2016-04-13T10:40:46.125Z,680
2016-04-13T10:41:46.300Z,680
2016-04-13T10:42:46.334Z,688
2016-04-13T10:43:46.306Z,696
2016-04-13T10:44:46.323Z,692
2016-04-13T10:45:46.325Z,688
2016-04-13T10:46:46.328Z,676
2016-04-13T10:47:46.347Z,684
2016-04-13T10:48:46.366Z,684
2016-04-13T10:49:46.352Z,692
2016-04-13T10:50:46.386Z,692
2016-04-13T10:51:46.373Z,692
2016-04-13T10:52:46.516Z,684
2016-04-13T10:53:46.379Z,676
2016-04-13T10:54:46.397Z,664
2016-04-13T10:55:53.322Z,676
2016-04-13T10:56:58.683Z,696
2016-04-13T10:58:00.983Z,696
2016-04-13T10:59:20.705Z,708
2016-04-13T11:00:02.223Z,740
2016-04-13T11:01:10.532Z,744
2016-04-13T11:01:59.564Z,744
2016-04-13T11:03:11.049Z,736
2016-04-13T11:04:14.250Z,736
2016-04-13T11:05:25.625Z,728
2016-04-13T11:06:19.541Z,732
2016-04-13T11:07:22.684Z,736
2016-04-13T11:08:29.514Z,740
2016-04-13T11:10:00.049Z,752
2016-04-13T11:10:45.834Z,760
2016-04-13T11:11:52.937Z,772
2016-04-13T11:13:19.719Z,772
2016-04-13T11:13:55.141Z,784
2016-04-13T11:14:59.976Z,800
2016-04-13T11:15:53.047Z,812
2016-04-13T11:17:08.224Z,808
2016-04-13T11:17:55.136Z,808
2016-04-13T11:19:06.405Z,844
2016-04-13T11:20:17.665Z,820
2016-04-13T11:20:59.196Z,820
2016-04-13T11:22:35.765Z,840
2016-04-13T11:22:54.265Z,756
2016-04-13T11:23:54.191Z,728
2016-04-13T11:24:54.195Z,812
2016-04-13T11:25:54.198Z,940
2016-04-13T11:26:54.216Z,908
2016-04-13T11:27:54.235Z,892
2016-04-13T11:28:54.222Z,932
2016-04-13T11:29:54.226Z,852
2016-04-13T11:30:54.229Z,936
2016-04-13T11:31:54.263Z,1000
2016-04-13T11:32:54.265Z,952
2016-04-13T11:33:54.269Z,932
2016-04-13T11:34:54.380Z,900
2016-04-13T11:35:54.274Z,892
2016-04-13T11:36:54.308Z,876
2016-04-13T11:37:54.388Z,844
2016-04-13T11:38:54.313Z,936
2016-04-13T11:39:54.315Z,1012
2016-04-13T11:40:54.318Z,1112
2016-04-13T11:41:54.352Z,1164
2016-04-13T11:42:54.339Z,1168
2016-04-13T11:43:54.357Z,1184
2016-04-13T11:44:54.345Z,1156
2016-04-13T11:45:54.362Z,1276
2016-04-13T11:46:54.366Z,1224
2016-04-13T11:47:54.368Z,1184
2016-04-13T11:48:54.387Z,1176
2016-04-13T11:49:54.390Z,1176
2016-04-13T11:50:54.407Z,1160
2016-04-13T11:51:54.394Z,1100
2016-04-13T11:52:54.553Z,1056
2016-04-13T11:53:54.415Z,1036
2016-04-13T11:54:54.418Z,1028
2016-04-13T11:55:54.437Z,988
2016-04-13T11:56:54.439Z,956
2016-04-13T11:57:54.458Z,736
2016-04-13T11:58:54.460Z,696
2016-04-13T11:59:54.478Z,688
2016-04-13T12:00:54.481Z,880
2016-04-13T12:01:54.469Z,988
2016-04-13T12:02:54.486Z,1004
2016-04-13T12:03:54.489Z,1036
2016-04-13T12:04:54.508Z,1044
2016-04-13T12:05:54.495Z,1012
2016-04-13T12:06:54.513Z,992
2016-04-13T12:07:54.625Z,1004
2016-04-13T12:08:54.535Z,1044
2016-04-13T12:09:54.538Z,1080
2016-04-13T12:10:54.541Z,1096
2016-04-13T12:11:54.559Z,980
2016-04-13T12:12:54.561Z,812
2016-04-13T12:13:54.564Z,984
2016-04-13T12:14:54.567Z,1120
2016-04-13T12:15:54.586Z,1092
2016-04-13T12:16:54.588Z,1036
2016-04-13T12:17:54.606Z,956
2016-04-13T12:18:54.655Z,904
2016-04-13T12:19:54.596Z,884
2016-04-13T12:20:54.614Z,884
2016-04-13T12:21:54.616Z,888
2016-04-13T12:22:54.666Z,888
2016-04-13T12:23:54.638Z,892
2016-04-13T12:24:54.640Z,900
2016-04-13T12:25:54.659Z,896
2016-04-13T12:26:54.662Z,868
2016-04-13T12:27:54.680Z,828
2016-04-13T12:28:54.682Z,816
2016-04-13T12:29:54.685Z,828
2016-04-13T12:30:54.673Z,836
2016-04-13T12:31:54.690Z,836
2016-04-13T12:32:54.694Z,840
2016-04-13T12:33:54.728Z,840
2016-04-13T12:34:54.715Z,840
2016-04-13T12:35:54.733Z,848
2016-04-13T12:36:54.750Z,848
2016-04-13T12:37:54.551Z,836
2016-04-13T12:38:54.772Z,828
2016-04-13T12:39:54.744Z,812
2016-04-13T12:40:54.747Z,800
2016-04-13T12:41:54.765Z,788
2016-04-13T12:42:54.783Z,784
2016-04-13T12:43:54.770Z,784
2016-04-13T12:44:54.788Z,780
2016-04-13T12:45:54.791Z,784
2016-04-13T12:46:54.794Z,800
2016-04-13T12:47:54.811Z,812
2016-04-13T12:48:54.814Z,832
2016-04-13T12:49:54.911Z,860
2016-04-13T12:50:54.836Z,904
2016-04-13T12:51:54.839Z,948
2016-04-13T12:52:55.013Z,996
2016-04-13T12:53:54.874Z,1024
2016-04-13T12:54:54.862Z,1052
2016-04-13T12:55:54.865Z,1036
2016-04-13T12:56:54.868Z,996
2016-04-13T12:57:54.886Z,908
2016-04-13T12:58:54.904Z,868
2016-04-13T12:59:54.891Z,844
2016-04-13T13:00:54.909Z,824
2016-04-13T13:01:54.756Z,780
2016-04-13T13:02:54.931Z,756
2016-04-13T13:03:54.918Z,736
2016-04-13T13:04:54.937Z,744
2016-04-13T13:05:54.939Z,748
2016-04-13T13:06:54.941Z,760
2016-04-13T13:07:55.053Z,692
2016-04-13T13:08:54.947Z,692
2016-04-13T13:09:54.965Z,768
2016-04-13T13:10:54.983Z,808
2016-04-13T13:11:54.986Z,864
2016-04-13T13:12:54.988Z,808
2016-04-13T13:13:54.992Z,752
2016-04-13T13:14:55.009Z,852
2016-04-13T13:15:54.997Z,864
2016-04-13T13:16:55.031Z,824
2016-04-13T13:17:55.033Z,772
2016-04-13T13:18:55.036Z,756
2016-04-13T13:19:55.055Z,748
2016-04-13T13:20:55.057Z,712
2016-04-13T13:21:55.060Z,680
2016-04-13T13:22:55.110Z,676
2016-04-13T13:23:55.065Z,656
2016-04-13T13:24:55.083Z,628
2016-04-13T13:25:55.085Z,588
2016-04-13T13:26:55.088Z,552
2016-04-13T13:27:55.091Z,524
2016-04-13T13:28:55.110Z,500
2016-04-13T13:29:55.112Z,476
2016-04-13T13:30:55.115Z,452
2016-04-13T13:31:55.118Z,428
2016-04-13T13:32:55.121Z,400
2016-04-13T13:33:55.123Z,376
2016-04-13T13:34:55.142Z,352
2016-04-13T13:35:55.145Z,336
2016-04-13T13:36:55.148Z,320
2016-04-13T13:37:55.196Z,304
2016-04-13T13:38:55.168Z,288
2016-04-13T13:39:55.170Z,272
2016-04-13T13:40:55.173Z,260
2016-04-13T13:41:55.176Z,248
2016-04-13T13:42:55.194Z,236
2016-04-13T13:43:55.212Z,228
2016-04-13T13:44:55.214Z,216
2016-04-13T13:45:55.218Z,212
2016-04-13T13:46:55.220Z,204
2016-04-13T13:47:55.222Z,200
2016-04-13T13:48:55.225Z,192
2016-04-13T13:49:55.244Z,184
2016-04-13T13:50:55.247Z,176
2016-04-13T13:51:55.249Z,172
2016-04-13T13:52:55.268Z,164
2016-04-13T13:53:55.255Z,160
2016-04-13T13:54:55.274Z,152
2016-04-13T13:55:55.276Z,144
2016-04-13T13:56:55.279Z,140
2016-04-13T13:57:55.297Z,136
2016-04-13T13:58:55.285Z,128
2016-04-13T13:59:55.318Z,124
2016-04-13T14:00:55.321Z,116
2016-04-13T14:01:55.324Z,112
2016-04-13T14:02:55.326Z,108
2016-04-13T14:03:55.329Z,100
2016-04-13T14:04:55.331Z,96
2016-04-13T14:05:55.350Z,92
2016-04-13T14:06:55.353Z,88
2016-04-13T14:07:55.371Z,80